Lamine, Missouri
Current Conditions -  °F | °C
As of 7:55 AM on Wednesday 26 Nov 2014 (Local Time) from KVER Reporting Station
Light Snow Light Snow  
Wind Chill: 32°   Ceiling: 1100
Heat Index: 32°   Visibility: 2.5mi
Dew Point: 32°   Wind: 3mph
Humidity: 99%   Direction: 180°S
Pressure: 29.96"   Gusts: NA
Location:  38.8814°N, 92.7602°W
Report Text: KVER 261355Z AUTO 18003KT 2 1/2SM -SN BKN011 OVC016 00/00 A2996 RMK AO2 P0004 T00010000
Loading
Personal Weather Stations






























Interactive Weather Map New forecast layout! Learn more

10-Day Weather Forecast

Advertisements
Track Severe Weather on mobile